CES156 ZSPD-EGLL
Flight info
| Callsign | CES156 |
|---|---|
| Flight time | N/A |
| Altitude | 30100 |
| Route | PIK82D PIKAS G330 PIMOL/K0913S0980 A593 DALIM W157 BEKDO/K0917S0950 W157 VYK G212 SOTMU/K0911S0980 B339 POLHO Y520 SERNA/K0902F340 R497 TODES/K0887F360 B228 HMN L870 RANVA/N0481F360 L870 RESMO DCT ETPIG/N0475F380 DCT GORAX DCT ALASA DCT IZZEX N872 PAM L980 LOGAN |
| Aircraft | A346/H-SDE2E3FGHIJ3J4J5M1RWXY/LB1D1 |
Departure
| Time | 2026-05-05 15:33 |
|---|---|
| Airport | Shanghai Pudong International Airport (ZSPD) |
Arrival
| Time | N/A |
|---|---|
| Airport | London Heathrow Airport (EGLL) |
| Time | Latitude | Longitude | Altitude | Speed | Heading |
|---|---|---|---|---|---|
| 2026-05-05 15:02 | 31.15134 | 121.79648 | 31 ft | 0 kts | 72° |
| 2026-05-05 15:21 | 31.15133 | 121.79645 | 31 ft | 3 kts | 72° |
| 2026-05-05 15:21 | 31.15117 | 121.79588 | 29 ft | 4 kts | 72° |
| 2026-05-05 15:21 | 31.15107 | 121.79563 | 30 ft | 4 kts | 48° |
| 2026-05-05 15:22 | 31.15091 | 121.79551 | 29 ft | 4 kts | 12° |
| 2026-05-05 15:22 | 31.15072 | 121.79552 | 30 ft | 2 kts | 342° |
| 2026-05-05 15:22 | 31.15050 | 121.79560 | 30 ft | 4 kts | 342° |
| 2026-05-05 15:22 | 31.15043 | 121.79563 | 29 ft | 0 kts | 342° |
| 2026-05-05 15:25 | 31.15052 | 121.79560 | 31 ft | 2 kts | 342° |
| 2026-05-05 15:25 | 31.15075 | 121.79551 | 31 ft | 5 kts | 342° |
| 2026-05-05 15:26 | 31.15112 | 121.79537 | 31 ft | 7 kts | 342° |
| 2026-05-05 15:26 | 31.15161 | 121.79518 | 31 ft | 8 kts | 342° |
| 2026-05-05 15:26 | 31.15201 | 121.79480 | 31 ft | 8 kts | 285° |
| 2026-05-05 15:26 | 31.15195 | 121.79412 | 31 ft | 9 kts | 253° |
| 2026-05-05 15:27 | 31.15175 | 121.79340 | 31 ft | 9 kts | 257° |
| 2026-05-05 15:27 | 31.15204 | 121.79278 | 31 ft | 10 kts | 334° |
| 2026-05-05 15:27 | 31.15275 | 121.79248 | 31 ft | 11 kts | 341° |
| 2026-05-05 15:27 | 31.15353 | 121.79218 | 31 ft | 12 kts | 342° |
| 2026-05-05 15:28 | 31.15437 | 121.79187 | 31 ft | 13 kts | 342° |
| 2026-05-05 15:28 | 31.15527 | 121.79153 | 31 ft | 14 kts | 342° |
| 2026-05-05 15:28 | 31.15620 | 121.79118 | 30 ft | 14 kts | 342° |
| 2026-05-05 15:28 | 31.15715 | 121.79082 | 31 ft | 15 kts | 342° |
| 2026-05-05 15:29 | 31.15812 | 121.79045 | 31 ft | 15 kts | 342° |
| 2026-05-05 15:29 | 31.15911 | 121.79008 | 31 ft | 15 kts | 342° |
| 2026-05-05 15:29 | 31.16010 | 121.78970 | 31 ft | 15 kts | 342° |
| 2026-05-05 15:29 | 31.16111 | 121.78932 | 31 ft | 15 kts | 342° |
| 2026-05-05 15:30 | 31.16170 | 121.78899 | 31 ft | 8 kts | 306° |
| 2026-05-05 15:30 | 31.16170 | 121.78834 | 31 ft | 9 kts | 255° |
| 2026-05-05 15:30 | 31.16152 | 121.78762 | 31 ft | 9 kts | 251° |
| 2026-05-05 15:30 | 31.16130 | 121.78686 | 31 ft | 10 kts | 251° |
| 2026-05-05 15:31 | 31.16088 | 121.78629 | 31 ft | 8 kts | 198° |
| 2026-05-05 15:31 | 31.16026 | 121.78637 | 30 ft | 10 kts | 163° |
| 2026-05-05 15:31 | 31.15983 | 121.78653 | 30 ft | 3 kts | 162° |
| 2026-05-05 15:31 | 31.15821 | 121.78714 | 31 ft | 52 kts | 162° |
| 2026-05-05 15:32 | 31.15306 | 121.78909 | 29 ft | 104 kts | 162° |
| 2026-05-05 15:32 | 31.14448 | 121.79231 | 32 ft | 150 kts | 162° |
| 2026-05-05 15:32 | 31.13324 | 121.79657 | 44 ft | 185 kts | 162° |
| 2026-05-05 15:32 | 31.12075 | 121.80101 | 489 ft | 187 kts | 164° |
| 2026-05-05 15:33 | 31.10833 | 121.80499 | 1079 ft | 184 kts | 166° |
| 2026-05-05 15:33 | 31.09625 | 121.80882 | 1731 ft | 180 kts | 167° |
| 2026-05-05 15:33 | 31.08416 | 121.81265 | 2114 ft | 184 kts | 167° |
| 2026-05-05 15:33 | 31.07143 | 121.81675 | 2357 ft | 196 kts | 166° |
| 2026-05-05 15:34 | 31.05791 | 121.82116 | 2598 ft | 208 kts | 165° |
| 2026-05-05 15:34 | 31.04353 | 121.82588 | 2827 ft | 222 kts | 165° |
| 2026-05-05 15:34 | 31.02821 | 121.83088 | 3082 ft | 235 kts | 167° |
| 2026-05-05 15:34 | 31.01153 | 121.83181 | 3339 ft | 248 kts | 193° |
| 2026-05-05 15:35 | 30.99579 | 121.82305 | 3693 ft | 258 kts | 221° |
| 2026-05-05 15:35 | 30.98534 | 121.80591 | 4155 ft | 266 kts | 248° |
| 2026-05-05 15:35 | 30.97957 | 121.78538 | 4758 ft | 267 kts | 251° |
| 2026-05-05 15:35 | 30.97384 | 121.76466 | 5295 ft | 270 kts | 251° |
| 2026-05-05 15:36 | 30.96812 | 121.74373 | 5759 ft | 272 kts | 251° |
| 2026-05-05 15:36 | 30.96358 | 121.72234 | 5910 ft | 273 kts | 265° |
| 2026-05-05 15:36 | 30.96446 | 121.70003 | 6021 ft | 281 kts | 281° |
| 2026-05-05 15:36 | 30.96852 | 121.67779 | 6642 ft | 279 kts | 282° |
| 2026-05-05 15:37 | 30.97275 | 121.65582 | 7281 ft | 277 kts | 282° |
| 2026-05-05 15:37 | 30.97698 | 121.63366 | 7810 ft | 280 kts | 282° |
| 2026-05-05 15:37 | 30.98116 | 121.61138 | 8300 ft | 283 kts | 281° |
| 2026-05-05 15:37 | 30.98538 | 121.58888 | 8825 ft | 285 kts | 281° |
| 2026-05-05 15:38 | 30.98958 | 121.56621 | 9345 ft | 287 kts | 281° |
| 2026-05-05 15:38 | 30.99381 | 121.54337 | 9855 ft | 289 kts | 280° |
| 2026-05-05 15:38 | 30.99805 | 121.52032 | 10301 ft | 293 kts | 280° |
| 2026-05-05 15:38 | 31.00235 | 121.49660 | 10523 ft | 305 kts | 281° |
| 2026-05-05 15:39 | 31.00688 | 121.47193 | 10752 ft | 317 kts | 281° |
| 2026-05-05 15:39 | 31.01158 | 121.44627 | 10971 ft | 329 kts | 281° |
| 2026-05-05 15:39 | 31.01650 | 121.41965 | 11195 ft | 342 kts | 281° |
| 2026-05-05 15:39 | 31.02153 | 121.39240 | 11416 ft | 354 kts | 281° |
| 2026-05-05 15:40 | 31.02677 | 121.36385 | 11643 ft | 366 kts | 281° |
| 2026-05-05 15:40 | 31.03218 | 121.33440 | 11942 ft | 375 kts | 281° |
| 2026-05-05 15:40 | 31.03766 | 121.30444 | 12410 ft | 379 kts | 281° |
| 2026-05-05 15:40 | 31.04316 | 121.27428 | 12973 ft | 381 kts | 281° |
| 2026-05-05 15:41 | 31.04870 | 121.24393 | 13505 ft | 383 kts | 281° |
| 2026-05-05 15:41 | 31.05427 | 121.21336 | 14030 ft | 386 kts | 282° |
| 2026-05-05 15:41 | 31.06075 | 121.18295 | 14484 ft | 389 kts | 291° |
| 2026-05-05 15:41 | 31.07451 | 121.15574 | 14886 ft | 392 kts | 310° |
| 2026-05-05 15:42 | 31.09537 | 121.13528 | 15356 ft | 396 kts | 329° |
| 2026-05-05 15:42 | 31.12107 | 121.12365 | 15809 ft | 400 kts | 348° |
| 2026-05-05 15:42 | 31.14896 | 121.12084 | 16300 ft | 403 kts | 356° |
| 2026-05-05 15:42 | 31.17702 | 121.11957 | 16789 ft | 405 kts | 356° |
| 2026-05-05 15:43 | 31.20525 | 121.11818 | 17235 ft | 408 kts | 355° |
| 2026-05-05 15:43 | 31.23365 | 121.11666 | 17696 ft | 410 kts | 355° |
| 2026-05-05 15:43 | 31.26221 | 121.11507 | 18168 ft | 411 kts | 355° |
| 2026-05-05 15:43 | 31.29085 | 121.11344 | 18591 ft | 413 kts | 355° |
| 2026-05-05 15:44 | 31.31963 | 121.11177 | 18986 ft | 415 kts | 355° |
| 2026-05-05 15:44 | 31.34855 | 121.11075 | 19384 ft | 417 kts | 358° |
| 2026-05-05 15:44 | 31.37768 | 121.11164 | 19785 ft | 420 kts | 1° |
| 2026-05-05 15:44 | 31.40691 | 121.11348 | 20185 ft | 422 kts | 0° |
| 2026-05-05 15:45 | 31.43618 | 121.11267 | 20562 ft | 421 kts | 352° |
| 2026-05-05 15:45 | 31.46489 | 121.10608 | 20965 ft | 420 kts | 342° |
| 2026-05-05 15:45 | 31.49228 | 121.09426 | 21356 ft | 420 kts | 335° |
| 2026-05-05 15:45 | 31.51907 | 121.08026 | 21741 ft | 422 kts | 335° |
| 2026-05-05 15:46 | 31.54584 | 121.06592 | 22095 ft | 424 kts | 334° |
| 2026-05-05 15:46 | 31.57279 | 121.05146 | 22455 ft | 426 kts | 335° |
| 2026-05-05 15:46 | 31.59983 | 121.03698 | 22825 ft | 428 kts | 335° |
| 2026-05-05 15:46 | 31.62698 | 121.02248 | 23188 ft | 430 kts | 335° |
| 2026-05-05 15:47 | 31.65428 | 121.00791 | 23538 ft | 432 kts | 335° |
| 2026-05-05 15:47 | 31.67240 | 120.99824 | 23727 ft | 433 kts | 335° |
| 2026-05-05 15:47 | 31.70872 | 120.97885 | 24124 ft | 435 kts | 335° |